Time;durP1;ratioP1;P1;durP2;ratioP2;P2;SDS_P1;SDS_P2;PMS_P1;PMS_P2;Temp;Humidity;BMP_temperature;BMP_pressure;BME280_temperature;BME280_humidity;BME280_pressure;Samples;Min_cycle;Max_cycle;Signal;HPM_P1;HPM_P2
2022/11/07 00:02:09;;;;;;;25.10;15.80;;;;;;;11.65;90.79;95063.56;5044872;28;20568;-81
2022/11/07 00:04:35;;;;;;;30.33;16.87;;;;;;;11.54;90.88;95059.78;5045175;28;20167;-80
2022/11/07 00:07:01;;;;;;;29.97;16.00;;;;;;;11.59;91.17;95062.56;5044891;28;20184;-80
2022/11/07 00:09:27;;;;;;;27.87;16.80;;;;;;;11.53;90.83;95067.91;5044934;28;20190;-80
2022/11/07 00:11:53;;;;;;;32.47;16.60;;;;;;;11.46;90.89;95064.50;5034077;28;20191;-79
2022/11/07 00:14:18;;;;;;;26.40;16.63;;;;;;;11.39;91.03;95061.91;5037194;28;20211;-79
2022/11/07 00:16:45;;;;;;;34.33;16.40;;;;;;;11.33;91.24;95066.16;5044710;28;20199;-79
2022/11/07 00:19:13;;;;;;;29.53;16.80;;;;;;;11.25;91.06;95061.13;5043573;28;20579;-80
2022/11/07 00:21:39;;;;;;;29.80;16.03;;;;;;;11.21;90.49;95059.94;5024920;28;20171;-79
2022/11/07 00:24:05;;;;;;;38.60;18.67;;;;;;;11.13;90.93;95059.38;5045319;28;20178;-80
2022/11/07 00:26:30;;;;;;;31.93;18.57;;;;;;;10.95;91.61;95052.97;5043058;28;20174;-79
2022/11/07 00:28:56;;;;;;;41.87;18.70;;;;;;;11.00;92.07;95052.31;5042731;28;20183;-81
2022/11/07 00:31:21;;;;;;;28.97;16.90;;;;;;;10.86;92.03;95048.13;5042778;28;20175;-80
2022/11/07 00:33:47;;;;;;;37.73;17.73;;;;;;;10.60;92.21;95014.78;5043843;28;20221;-80
2022/11/07 00:36:22;;;;;;;29.97;18.37;;;;;;;10.89;92.41;95066.16;5044005;28;20195;-80
2022/11/07 00:38:47;;;;;;;35.10;18.97;;;;;;;10.82;92.20;95060.88;5033515;28;20167;-80
2022/11/07 00:41:13;;;;;;;31.63;17.70;;;;;;;10.82;92.30;95068.78;5037332;28;20193;-80
2022/11/07 00:43:38;;;;;;;29.93;17.63;;;;;;;10.86;92.17;95069.19;5044282;28;20179;-80
2022/11/07 00:46:05;;;;;;;30.03;17.33;;;;;;;10.86;92.85;95067.38;5044085;28;20561;-80
2022/11/07 00:48:31;;;;;;;29.97;18.53;;;;;;;10.66;92.81;95027.09;5033012;28;20658;-80
2022/11/07 00:50:56;;;;;;;27.53;16.50;;;;;;;10.43;93.34;94982.84;5046489;28;20217;-80
2022/11/07 00:53:22;;;;;;;28.47;17.93;;;;;;;10.88;93.63;95054.81;5044192;28;20179;-80
2022/11/07 00:55:48;;;;;;;31.20;18.03;;;;;;;10.76;92.34;95048.56;5044260;28;20198;-80
2022/11/07 00:58:15;;;;;;;32.47;17.67;;;;;;;10.54;92.50;95029.59;5043637;28;20184;-80
2022/11/07 01:00:41;;;;;;;37.07;17.27;;;;;;;10.35;93.41;95011.19;5038708;28;20235;-80
2022/11/07 01:05:59;;;;;;;27.73;16.80;;;;;;;10.39;94.46;95043.97;5033970;28;20237;-80
2022/11/07 01:08:25;;;;;;;27.20;16.83;;;;;;;10.40;94.34;95054.28;5041507;28;20175;-80
2022/11/07 01:10:54;;;;;;;24.73;15.30;;;;;;;10.32;94.01;95048.44;5041404;28;20184;-80
2022/11/07 01:13:20;;;;;;;24.93;16.33;;;;;;;10.25;94.29;95040.56;5041424;28;20690;-80
2022/11/07 01:15:46;;;;;;;24.47;14.73;;;;;;;10.26;93.74;95042.16;5046842;28;20195;-80
2022/11/07 01:18:11;;;;;;;29.93;15.80;;;;;;;10.20;93.99;95035.88;5043587;28;20183;-80
2022/11/07 01:20:37;;;;;;;31.13;17.37;;;;;;;10.18;94.15;95037.13;5043055;28;20254;-80
2022/11/07 01:23:02;;;;;;;26.53;15.07;;;;;;;10.14;94.08;95038.50;5044650;28;20179;-80
2022/11/07 01:25:28;;;;;;;28.23;16.60;;;;;;;10.15;94.51;95032.22;5043745;28;20171;-80
2022/11/07 01:27:53;;;;;;;30.23;15.93;;;;;;;10.14;95.00;95036.69;5052709;28;20171;-80
2022/11/07 01:30:19;;;;;;;27.20;16.23;;;;;;;10.07;94.69;95035.06;5052225;28;20242;-80
2022/11/07 01:32:44;;;;;;;32.20;16.63;;;;;;;10.01;95.54;95025.38;5043320;28;20653;-80
2022/11/07 01:35:10;;;;;;;25.07;15.33;;;;;;;9.95;94.65;95007.75;5043201;28;20252;-80
2022/11/07 01:37:35;;;;;;;29.27;16.17;;;;;;;9.76;94.25;94991.00;5044249;28;20175;-80
2022/11/07 01:40:00;;;;;;;25.17;15.33;;;;;;;10.03;94.05;95042.53;5042536;28;20190;-80
2022/11/07 01:42:26;;;;;;;24.27;16.00;;;;;;;10.01;93.44;95034.06;5048456;28;20210;-80
2022/11/07 01:44:55;;;;;;;26.33;15.00;;;;;;;9.99;93.50;95030.81;5041139;28;20675;-80
2022/11/07 01:47:23;;;;;;;27.23;16.00;;;;;;;9.88;93.65;95041.94;5041273;28;20175;-80
2022/11/07 01:49:49;;;;;;;27.23;15.67;;;;;;;9.89;93.29;95045.38;5041241;28;20182;-80
2022/11/07 01:52:14;;;;;;;29.97;16.63;;;;;;;9.88;93.23;95038.50;5041071;28;20663;-80
2022/11/07 01:55:12;;;;;;;32.47;18.00;;;;;;;9.91;94.61;95048.63;5040665;28;20187;-80
2022/11/07 01:58:02;;;;;;;31.03;17.07;;;;;;;9.98;94.91;95047.59;5024386;28;20192;-79
2022/11/07 02:00:28;;;;;;;27.53;15.83;;;;;;;10.03;93.79;95044.38;5032536;28;20163;-79
2022/11/07 02:03:00;;;;;;;35.33;17.47;;;;;;;10.01;92.92;95046.41;5032076;28;20262;-80
2022/11/07 02:05:44;;;;;;;33.20;17.37;;;;;;;9.99;93.09;95049.22;5032043;28;20167;-80
2022/11/07 02:08:11;;;;;;;33.33;19.43;;;;;;;9.60;94.49;94988.75;5034957;28;20236;-80
2022/11/07 02:10:38;;;;;;;36.27;19.47;;;;;;;9.91;95.38;95046.81;5043745;28;20190;-79
2022/11/07 02:13:05;;;;;;;31.17;17.87;;;;;;;9.61;95.66;94993.78;5039065;28;20227;-78
2022/11/07 02:15:33;;;;;;;33.40;20.77;;;;;;;9.82;95.42;95045.38;5046338;28;20199;-77
2022/11/07 02:17:59;;;;;;;35.40;20.10;;;;;;;9.79;95.32;95051.03;5051847;28;20179;-79
2022/11/07 02:20:25;;;;;;;31.37;18.77;;;;;;;9.79;95.71;95048.41;5051173;28;20171;-79
2022/11/07 02:22:59;;;;;;;31.93;17.80;;;;;;;9.79;95.15;95051.84;5047498;28;20189;-80
2022/11/07 02:25:24;;;;;;;35.13;17.93;;;;;;;9.69;94.69;95033.03;5036923;28;20168;-81
2022/11/07 02:27:58;;;;;;;33.10;18.07;;;;;;;9.67;94.42;95039.50;5044677;28;20179;-79
2022/11/07 02:30:28;;;;;;;35.43;19.33;;;;;;;9.75;94.36;95049.81;5044465;28;20175;-79
2022/11/07 02:32:53;;;;;;;35.43;19.70;;;;;;;9.48;95.52;95046.34;5035955;28;20207;-79
2022/11/07 02:35:35;;;;;;;33.77;18.53;;;;;;;9.25;95.77;95002.03;5044209;28;20265;-79
2022/11/07 02:38:05;;;;;;;29.60;17.27;;;;;;;9.52;95.06;95052.81;5054365;28;20229;-79
2022/11/07 02:40:31;;;;;;;36.17;19.57;;;;;;;9.54;95.64;95056.06;5052083;28;20184;-79
2022/11/07 02:42:59;;;;;;;33.60;18.57;;;;;;;9.50;96.01;95049.59;5035944;28;20190;-79
2022/11/07 02:45:31;;;;;;;32.37;18.43;;;;;;;9.37;95.23;95026.72;5053064;28;20704;-79
2022/11/07 02:47:57;;;;;;;35.33;18.97;;;;;;;9.53;94.58;95035.22;5021453;28;20616;-80
2022/11/07 02:50:22;;;;;;;30.13;18.10;;;;;;;9.45;94.36;95041.47;5041123;28;20180;-79
2022/11/07 02:52:56;;;;;;;31.53;18.23;;;;;;;9.54;94.29;95044.72;5044365;28;20262;-79
2022/11/07 02:55:21;;;;;;;34.23;18.80;;;;;;;9.40;94.79;95018.44;5054493;28;20316;-79
2022/11/07 02:57:46;;;;;;;36.30;18.57;;;;;;;9.64;94.57;95051.22;5046087;28;20179;-81
2022/11/07 03:00:14;;;;;;;32.10;18.13;;;;;;;9.63;94.42;95038.28;5046567;28;20259;-79
2022/11/07 03:02:45;;;;;;;33.27;19.33;;;;;;;9.69;94.71;95047.97;5037596;28;20179;-79
2022/11/07 03:05:12;;;;;;;35.07;18.53;;;;;;;9.74;94.21;95037.69;5044322;28;20206;-79
2022/11/07 03:07:39;;;;;;;37.67;20.23;;;;;;;9.79;94.78;95041.31;5043875;28;20183;-80
2022/11/07 03:10:05;;;;;;;37.13;20.20;;;;;;;9.73;94.94;95047.41;5052399;28;20179;-80
2022/11/07 03:12:30;;;;;;;35.67;20.63;;;;;;;9.74;94.42;95045.56;5046403;28;20667;-79
2022/11/07 03:14:56;;;;;;;34.30;18.17;;;;;;;9.73;94.37;95044.75;5045960;28;20223;-79
2022/11/07 03:17:21;;;;;;;33.73;18.27;;;;;;;9.72;94.20;95056.28;5044972;28;20646;-79
2022/11/07 03:19:47;;;;;;;31.63;16.60;;;;;;;9.37;94.16;95012.75;5045871;28;20178;-79
2022/11/07 03:22:12;;;;;;;31.33;17.67;;;;;;;9.68;94.44;95052.44;5045738;28;20198;-79
2022/11/07 03:24:37;;;;;;;34.33;18.47;;;;;;;9.63;94.15;95064.56;5046096;28;20241;-79
2022/11/07 03:27:03;;;;;;;34.33;19.67;;;;;;;9.66;93.85;95066.78;5048621;28;20547;-79
2022/11/07 03:29:28;;;;;;;32.87;19.00;;;;;;;9.63;93.78;95067.19;5035083;28;20309;-79
2022/11/07 03:31:54;;;;;;;33.53;19.80;;;;;;;9.64;93.91;95076.69;5045415;28;20174;-79
2022/11/07 03:34:19;;;;;;;28.03;18.00;;;;;;;9.68;93.67;95083.19;5050987;28;20190;-79
2022/11/07 03:36:45;;;;;;;30.47;17.37;;;;;;;9.70;94.39;95076.69;5040544;28;20268;-79
2022/11/07 03:39:10;;;;;;;29.57;17.23;;;;;;;9.70;95.27;95081.16;5037501;28;20581;-79
2022/11/07 03:41:35;;;;;;;32.23;17.87;;;;;;;9.71;95.43;95080.94;5052686;28;20224;-79
2022/11/07 03:44:01;;;;;;;35.60;20.77;;;;;;;9.67;95.33;95065.78;5043164;28;20665;-79
2022/11/07 03:46:26;;;;;;;30.67;18.77;;;;;;;9.76;95.35;95081.19;5041034;28;20208;-79
2022/11/07 03:48:51;;;;;;;26.37;17.20;;;;;;;9.69;95.07;95087.41;5036666;28;20183;-79
2022/11/07 03:51:17;;;;;;;29.40;17.10;;;;;;;9.72;94.87;95098.34;5044761;28;20683;-79
2022/11/07 03:53:42;;;;;;;34.23;16.43;;;;;;;9.54;94.43;95071.81;5045365;28;20217;-79
2022/11/07 03:56:09;;;;;;;34.10;17.80;;;;;;;9.62;94.74;95078.69;5043994;28;20202;-79
2022/11/07 03:58:35;;;;;;;25.30;15.43;;;;;;;9.78;94.58;95099.34;5045344;28;20253;-79
2022/11/07 04:01:01;;;;;;;31.67;17.90;;;;;;;9.65;95.11;95099.34;5043031;28;20291;-79
2022/11/07 04:03:27;;;;;;;28.97;16.40;;;;;;;9.43;95.55;95070.56;5042857;28;20556;-79
2022/11/07 04:05:52;;;;;;;31.27;18.60;;;;;;;9.73;95.17;95104.41;5044394;28;20179;-79
2022/11/07 04:08:18;;;;;;;33.90;19.13;;;;;;;9.77;95.33;95101.16;5042671;28;20225;-79
2022/11/07 04:10:43;;;;;;;30.23;16.83;;;;;;;9.80;95.12;95108.66;5037383;28;20190;-79
2022/11/07 04:18:55;;;;;;;30.30;15.40;;;;;;;9.83;94.31;95105.66;5031951;28;20198;-79
2022/11/07 04:21:20;;;;;;;24.60;12.53;;;;;;;9.69;94.15;95100.53;5029403;28;20576;-78
2022/11/07 04:23:45;;;;;;;24.60;13.17;;;;;;;9.69;94.44;95101.34;5042597;28;20210;-80
2022/11/07 04:28:55;;;;;;;21.90;11.77;;;;;;;9.71;93.82;95111.69;5043096;28;20210;-80
2022/11/07 04:31:24;;;;;;;21.70;12.73;;;;;;;9.67;93.81;95106.03;5043338;28;20574;-80
2022/11/07 04:33:50;;;;;;;23.37;12.53;;;;;;;9.80;93.81;95118.38;5039760;28;20218;-80
2022/11/07 04:36:15;;;;;;;23.37;12.60;;;;;;;9.83;93.76;95112.72;5036447;28;20203;-80
2022/11/07 04:38:41;;;;;;;24.13;11.67;;;;;;;9.58;93.76;95069.63;5027548;28;20275;-80
2022/11/07 04:41:18;;;;;;;21.40;11.80;;;;;;;9.92;93.15;95110.72;5041373;28;20178;-80
2022/11/07 04:43:43;;;;;;;26.67;12.03;;;;;;;9.92;92.63;95106.28;5019748;28;20179;-80
2022/11/07 04:46:08;;;;;;;22.13;12.27;;;;;;;10.00;92.79;95121.84;5039296;28;20180;-80
2022/11/07 04:48:34;;;;;;;23.87;11.67;;;;;;;10.07;92.67;95119.22;5036792;28;20620;-80
2022/11/07 04:50:59;;;;;;;25.70;12.83;;;;;;;10.02;92.21;95111.16;5042062;28;20179;-80
2022/11/07 04:53:25;;;;;;;24.23;13.20;;;;;;;10.03;92.60;95110.91;5041494;28;20990;-80
2022/11/07 04:55:50;;;;;;;23.73;13.33;;;;;;;10.04;92.06;95125.69;5041705;28;20234;-80
2022/11/07 04:58:15;;;;;;;20.40;11.80;;;;;;;9.62;91.79;95065.56;5044085;28;20776;-80
2022/11/07 05:00:41;;;;;;;29.00;12.77;;;;;;;9.98;92.23;95123.06;5043889;28;20171;-80
2022/11/07 05:03:07;;;;;;;22.60;13.97;;;;;;;10.00;92.86;95128.94;5044033;28;20167;-80
2022/11/07 05:05:33;;;;;;;23.53;12.93;;;;;;;10.03;93.10;95136.44;5044060;28;20207;-80
2022/11/07 05:07:58;;;;;;;22.87;14.63;;;;;;;10.05;93.20;95131.75;5046665;28;20211;-80
2022/11/07 05:10:26;;;;;;;31.70;15.13;;;;;;;10.13;93.25;95131.56;5041685;28;20191;-80
2022/11/07 05:12:52;;;;;;;28.13;16.00;;;;;;;10.19;93.01;95131.63;5041292;28;20183;-79
2022/11/07 05:15:18;;;;;;;26.13;13.93;;;;;;;10.21;92.94;95132.22;5049586;28;20609;-79
2022/11/07 05:17:44;;;;;;;26.80;15.50;;;;;;;10.07;92.46;95109.53;5038834;28;20190;-79
2022/11/07 05:20:37;;;;;;;30.10;16.47;;;;;;;9.98;92.71;95102.03;5048500;28;20179;-79
2022/11/07 05:23:13;;;;;;;27.23;15.50;;;;;;;10.33;92.74;95152.66;5033867;28;20164;-78
2022/11/07 05:25:49;;;;;;;33.00;18.50;;;;;;;10.36;92.95;95150.47;5041007;28;20191;-78
2022/11/07 05:28:17;;;;;;;34.00;17.80;;;;;;;10.26;93.16;95130.81;5034806;28;20316;-80
2022/11/07 05:30:44;;;;;;;35.33;17.50;;;;;;;10.44;93.14;95155.53;5041323;28;20175;-80
2022/11/07 05:33:11;;;;;;;35.67;17.73;;;;;;;10.46;93.11;95155.31;5042138;28;20183;-80
2022/11/07 05:35:37;;;;;;;33.17;17.17;;;;;;;10.46;92.90;95150.88;5042943;28;20211;-80
2022/11/07 05:38:03;;;;;;;36.30;17.53;;;;;;;10.48;93.29;95161.97;5041878;28;20182;-79
2022/11/07 05:40:29;;;;;;;34.67;16.37;;;;;;;10.58;93.08;95164.22;5043476;28;20190;-79
2022/11/07 05:42:59;;;;;;;35.77;17.90;;;;;;;10.64;92.96;95167.88;5040781;28;20175;-79
2022/11/07 05:45:25;;;;;;;32.80;18.73;;;;;;;10.73;93.30;95171.91;5030472;28;20199;-80
2022/11/07 05:47:58;;;;;;;43.57;18.07;;;;;;;10.75;93.16;95167.25;5044701;28;20635;-80
2022/11/07 05:50:25;;;;;;;30.67;15.23;;;;;;;10.64;92.89;95155.50;5034665;28;20294;-79
2022/11/07 05:52:50;;;;;;;30.43;16.10;;;;;;;10.69;92.44;95178.59;5042091;28;20314;-80
2022/11/07 05:55:15;;;;;;;32.40;14.63;;;;;;;10.18;93.25;95123.94;5043046;28;20285;-80
2022/11/07 05:57:41;;;;;;;30.00;15.37;;;;;;;10.56;93.57;95174.94;5043194;28;20176;-80
2022/11/07 06:00:09;;;;;;;26.33;16.20;;;;;;;10.62;93.30;95186.50;5041760;28;20175;-80
2022/11/07 06:02:34;;;;;;;27.87;16.00;;;;;;;10.42;93.81;95154.09;5039526;28;20191;-80
2022/11/07 06:05:00;;;;;;;33.07;15.27;;;;;;;10.67;93.74;95170.09;5040918;28;20183;-80
2022/11/07 06:07:31;;;;;;;25.93;15.17;;;;;;;10.81;93.98;95171.72;5046763;28;20187;-80
2022/11/07 06:09:57;;;;;;;26.50;16.47;;;;;;;11.01;93.66;95188.28;5045928;28;20183;-80
2022/11/07 06:12:22;;;;;;;26.73;14.93;;;;;;;10.93;93.17;95159.53;5040437;28;20567;-80
2022/11/07 06:14:47;;;;;;;30.70;15.17;;;;;;;11.23;92.89;95194.13;5040425;28;20254;-80
2022/11/07 06:17:13;;;;;;;31.00;16.73;;;;;;;11.33;92.73;95190.03;5041076;28;20258;-80
2022/11/07 06:19:38;;;;;;;26.87;15.10;;;;;;;11.43;91.85;95194.06;5040912;28;20182;-80
2022/11/07 06:22:04;;;;;;;26.73;15.10;;;;;;;11.45;91.90;95184.94;5040803;28;20246;-80
2022/11/07 06:24:29;;;;;;;31.50;15.80;;;;;;;11.63;91.32;95203.53;5040893;28;20632;-80
2022/11/07 06:26:54;;;;;;;32.13;16.23;;;;;;;11.79;91.44;95206.75;5036256;28;20172;-80
2022/11/07 06:29:20;;;;;;;38.20;18.27;;;;;;;11.79;91.73;95190.94;5050018;28;20183;-80
2022/11/07 06:31:45;;;;;;;37.70;20.60;;;;;;;11.99;91.57;95213.56;5050570;28;20908;-80
2022/11/07 06:34:11;;;;;;;33.53;19.43;;;;;;;12.05;91.42;95204.00;5052123;28;20183;-80
2022/11/07 06:36:36;;;;;;;30.63;17.10;;;;;;;12.23;90.99;95217.28;5042042;28;21157;-80
2022/11/07 06:39:02;;;;;;;27.50;16.30;;;;;;;12.20;89.74;95211.63;5047280;28;20182;-81
2022/11/07 06:41:27;;;;;;;30.67;16.80;;;;;;;12.28;89.86;95225.38;5039754;28;20219;-80
2022/11/07 06:43:53;;;;;;;48.47;17.03;;;;;;;12.27;90.20;95220.34;5038972;28;20201;-80
2022/11/07 06:46:21;;;;;;;32.37;15.70;;;;;;;12.26;90.47;95210.78;5042674;28;20246;-80
2022/11/07 06:48:46;;;;;;;26.00;15.93;;;;;;;12.47;89.05;95231.56;5042752;28;20190;-80
2022/11/07 06:51:12;;;;;;;27.87;16.57;;;;;;;12.53;89.18;95230.72;5041771;28;20279;-80
2022/11/07 06:53:38;;;;;;;33.30;16.00;;;;;;;12.52;89.39;95238.84;5031856;28;20234;-80
2022/11/07 06:56:06;;;;;;;28.27;16.90;;;;;;;12.60;89.21;95242.06;5031371;28;20663;-80
2022/11/07 06:58:31;;;;;;;35.03;16.83;;;;;;;12.65;88.89;95242.22;5035759;28;20168;-80
2022/11/07 07:01:01;;;;;;;30.57;18.40;;;;;;;12.66;88.72;95225.34;5035396;28;20289;-80
2022/11/07 07:03:26;;;;;;;32.40;20.10;;;;;;;12.59;89.57;95239.63;5035154;28;20175;-80
2022/11/07 07:05:52;;;;;;;33.27;19.47;;;;;;;12.44;89.94;95224.91;5046183;28;20179;-80
2022/11/07 07:08:17;;;;;;;34.60;20.47;;;;;;;12.45;90.19;95229.13;5045907;28;20261;-80
2022/11/07 07:10:44;;;;;;;39.00;20.10;;;;;;;12.50;90.42;95222.41;5046395;28;20225;-80
2022/11/07 07:13:10;;;;;;;37.40;20.70;;;;;;;12.65;90.16;95241.41;5042482;28;20618;-80
2022/11/07 07:15:36;;;;;;;38.83;19.97;;;;;;;12.65;90.10;95247.50;5039924;28;20195;-80
2022/11/07 07:18:03;;;;;;;40.47;21.63;;;;;;;12.70;90.90;95241.59;5045711;28;20206;-80
2022/11/07 07:20:29;;;;;;;38.73;20.67;;;;;;;12.52;90.10;95213.25;5045761;28;20240;-80
2022/11/07 07:22:54;;;;;;;37.83;21.07;;;;;;;12.76;90.16;95244.19;5039109;28;20167;-80
2022/11/07 07:25:20;;;;;;;45.27;21.17;;;;;;;12.49;90.50;95221.59;5042995;28;20176;-79
2022/11/07 07:27:45;;;;;;;40.03;22.33;;;;;;;12.61;91.32;95242.88;5041606;28;20668;-80
2022/11/07 07:30:12;;;;;;;36.13;20.87;;;;;;;12.59;91.57;95248.34;5048995;28;20186;-80
2022/11/07 07:32:37;;;;;;;36.63;21.67;;;;;;;12.17;91.78;95178.56;5046584;28;20219;-80
2022/11/07 07:35:03;;;;;;;37.37;22.27;;;;;;;12.63;91.72;95233.69;5039609;28;20257;-80
2022/11/07 07:37:29;;;;;;;43.87;20.73;;;;;;;12.72;91.77;95224.47;5039469;28;20179;-80
2022/11/07 07:39:55;;;;;;;36.07;21.20;;;;;;;13.10;90.86;95244.72;5041343;28;20183;-80
2022/11/07 07:42:20;;;;;;;31.33;19.23;;;;;;;13.20;89.64;95248.53;5044031;28;20167;-80
2022/11/07 07:44:45;;;;;;;33.93;19.97;;;;;;;13.36;89.19;95254.28;5041742;28;20745;-80
2022/11/07 07:47:11;;;;;;;34.07;19.70;;;;;;;13.34;88.41;95221.94;5042174;28;20172;-80
2022/11/07 07:49:36;;;;;;;40.50;20.00;;;;;;;13.47;87.11;95224.47;5039664;28;20183;-80
2022/11/07 07:52:02;;;;;;;39.63;18.83;;;;;;;13.60;86.98;95254.22;5044769;28;20175;-80
2022/11/07 07:54:27;;;;;;;33.40;18.40;;;;;;;13.55;86.58;95243.50;5040404;28;20288;-80
2022/11/07 07:56:52;;;;;;;41.33;18.87;;;;;;;13.58;86.61;95252.81;5037374;28;20753;-80
2022/11/07 07:59:18;;;;;;;33.57;19.27;;;;;;;13.50;86.59;95232.75;5043647;28;20180;-80
2022/11/07 08:01:46;;;;;;;30.13;17.87;;;;;;;13.58;86.38;95227.19;5044974;28;20246;-80
2022/11/07 08:04:11;;;;;;;34.27;19.37;;;;;;;13.56;86.12;95220.50;5047105;28;20179;-80
2022/11/07 08:06:36;;;;;;;32.90;18.03;;;;;;;13.84;86.74;95249.09;5039806;28;20172;-80
2022/11/07 08:09:03;;;;;;;36.23;18.40;;;;;;;13.85;86.80;95243.56;5050906;28;20254;-80
2022/11/07 08:11:28;;;;;;;33.13;18.57;;;;;;;13.97;86.28;95241.00;5042822;28;20171;-80
2022/11/07 08:13:54;;;;;;;32.63;19.03;;;;;;;13.86;85.22;95218.72;5036212;28;20222;-80
2022/11/07 08:16:20;;;;;;;34.70;17.93;;;;;;;14.14;85.42;95254.44;5035822;28;20278;-80
2022/11/07 08:18:46;;;;;;;35.07;17.60;;;;;;;14.19;85.28;95238.69;5049531;28;20708;-80
2022/11/07 08:21:11;;;;;;;31.77;15.43;;;;;;;14.26;84.09;95232.28;5045577;28;20182;-80
2022/11/07 08:23:36;;;;;;;33.53;17.33;;;;;;;14.31;83.93;95250.97;5045189;28;20320;-79
2022/11/07 08:26:03;;;;;;;30.00;17.63;;;;;;;14.23;84.31;95239.88;5042586;28;20203;-79
2022/11/07 08:28:32;;;;;;;33.60;18.73;;;;;;;14.26;84.97;95250.84;5039391;28;20658;-80
2022/11/07 08:31:06;;;;;;;40.23;17.93;;;;;;;14.21;85.35;95239.28;5045377;28;20187;-80
2022/11/07 08:33:33;;;;;;;32.87;18.60;;;;;;;14.36;85.21;95242.31;5047624;28;20265;-79
2022/11/07 08:36:00;;;;;;;29.43;16.87;;;;;;;14.41;84.33;95247.00;5042371;28;20683;-80
2022/11/07 08:38:28;;;;;;;32.30;17.57;;;;;;;14.34;84.53;95236.47;5042233;28;20211;-80
2022/11/07 08:40:54;;;;;;;32.90;18.73;;;;;;;14.56;83.97;95250.03;5047513;28;20174;-79
2022/11/07 08:43:20;;;;;;;35.67;18.07;;;;;;;14.69;84.51;95255.97;5038731;28;20258;-79
2022/11/07 08:45:47;;;;;;;39.43;18.43;;;;;;;14.79;83.21;95252.75;5046327;28;20260;-79
2022/11/07 08:48:14;;;;;;;31.97;17.70;;;;;;;14.82;82.99;95256.78;5045193;28;20175;-80
2022/11/07 08:50:39;;;;;;;34.57;17.53;;;;;;;14.85;83.70;95256.34;5060857;28;20174;-80
2022/11/07 08:53:05;;;;;;;30.60;16.23;;;;;;;14.97;82.47;95252.69;5034636;28;20567;-80
2022/11/07 08:55:31;;;;;;;37.73;18.77;;;;;;;15.03;82.30;95256.28;5045524;28;20195;-80
2022/11/07 08:57:58;;;;;;;36.03;18.20;;;;;;;14.97;82.85;95236.78;5042627;28;20666;-81
2022/11/07 09:00:24;;;;;;;31.17;17.70;;;;;;;15.20;84.71;95214.78;5056032;28;20214;-81
2022/11/07 09:02:49;;;;;;;38.67;16.73;;;;;;;15.89;80.93;95262.78;5043777;28;20297;-80
2022/11/07 09:05:14;;;;;;;28.80;15.70;;;;;;;16.17;77.67;95266.28;5038979;28;20233;-80
2022/11/07 09:07:40;;;;;;;28.90;14.83;;;;;;;16.34;75.61;95265.56;5041050;28;20940;-80
2022/11/07 09:10:06;;;;;;;29.25;14.45;;;;;;;16.36;75.14;95277.53;5041735;28;20175;-80
2022/11/07 09:12:31;;;;;;;27.37;14.37;;;;;;;15.96;75.61;95236.88;5040109;28;20797;-80
2022/11/07 09:14:57;;;;;;;24.47;13.90;;;;;;;16.16;74.47;95270.00;5042353;28;20333;-80
2022/11/07 09:17:22;;;;;;;26.57;15.30;;;;;;;16.08;74.82;95249.13;5037075;28;20550;-80
2022/11/07 09:19:48;;;;;;;24.27;15.30;;;;;;;16.23;74.91;95264.53;5045631;28;20261;-81
2022/11/07 09:22:13;;;;;;;28.63;16.23;;;;;;;16.35;73.87;95267.13;5040928;28;20186;-80
2022/11/07 09:24:39;;;;;;;32.90;15.63;;;;;;;16.22;74.45;95257.59;5044578;28;20569;-80
2022/11/07 09:27:04;;;;;;;27.92;15.82;;;;;;;16.31;73.61;95266.00;5047835;28;20254;-81
2022/11/07 09:29:30;;;;;;;20.55;13.55;;;;;;;16.06;72.51;95227.28;5033912;28;20258;-80
2022/11/07 09:31:55;;;;;;;26.80;14.47;;;;;;;16.20;72.04;95225.97;5040809;28;20183;-80
2022/11/07 09:34:21;;;;;;;24.88;12.70;;;;;;;15.83;70.60;95190.97;5046352;28;20179;-80
2022/11/07 09:36:46;;;;;;;23.87;11.70;;;;;;;15.97;70.35;95246.47;5041388;28;20758;-80
2022/11/07 09:39:11;;;;;;;19.55;10.70;;;;;;;15.62;69.86;95243.88;5025732;28;20595;-79
2022/11/07 09:42:04;;;;;;;19.67;11.57;;;;;;;15.49;71.07;95256.28;5043275;28;20179;-80
2022/11/07 09:44:39;;;;;;;15.77;9.93;;;;;;;15.31;71.37;95243.13;5041498;28;20289;-81
2022/11/07 09:47:15;;;;;;;21.57;10.43;;;;;;;15.20;71.97;95245.81;5037168;28;20171;-79
2022/11/07 09:50:00;;;;;;;22.27;11.90;;;;;;;15.17;71.46;95249.72;5045868;28;20213;-79
2022/11/07 09:52:47;;;;;;;20.87;11.53;;;;;;;15.16;71.71;95256.06;5050384;28;20194;-79
2022/11/07 09:55:16;;;;;;;16.70;11.60;;;;;;;15.10;71.60;95249.03;5025757;28;20209;-79
2022/11/07 09:57:41;;;;;;;18.83;10.57;;;;;;;14.97;71.89;95230.66;5043859;28;20183;-79
2022/11/07 10:00:14;;;;;;;22.03;12.43;;;;;;;14.95;72.70;95248.66;5041057;28;20712;-79
2022/11/07 10:02:45;;;;;;;24.20;12.60;;;;;;;14.82;72.96;95212.53;5041329;28;20218;-79
2022/11/07 10:05:23;;;;;;;31.23;12.37;;;;;;;15.15;72.56;95243.81;5041198;28;20250;-79
2022/11/07 10:08:06;;;;;;;22.67;12.20;;;;;;;15.35;71.45;95241.66;5035929;28;20263;-79
2022/11/07 10:10:42;;;;;;;21.63;12.37;;;;;;;15.28;70.94;95211.78;5038919;28;20175;-79
2022/11/07 10:13:44;;;;;;;20.70;11.67;;;;;;;15.42;71.24;95225.63;5031765;28;20666;-79
2022/11/07 10:16:31;;;;;;;26.83;12.43;;;;;;;15.45;71.46;95227.81;5032007;28;20674;-78
2022/11/07 10:18:56;;;;;;;26.57;12.67;;;;;;;15.54;71.20;95225.66;5034588;28;20569;-80
2022/11/07 10:21:36;;;;;;;20.27;12.33;;;;;;;15.48;71.18;95227.34;5035710;28;20184;-80
2022/11/07 10:24:20;;;;;;;20.77;11.87;;;;;;;15.52;70.61;95225.84;5043408;28;20174;-80
2022/11/07 10:26:45;;;;;;;19.77;11.07;;;;;;;15.47;70.46;95212.47;5033968;28;20221;-80
2022/11/07 10:29:14;;;;;;;20.40;11.53;;;;;;;15.58;71.72;95209.00;5047356;28;20163;-80
2022/11/07 10:32:02;;;;;;;20.13;10.90;;;;;;;15.64;69.65;95200.13;5050770;28;20179;-80
2022/11/07 10:34:35;;;;;;;18.90;12.10;;;;;;;15.70;69.30;95203.69;5049350;28;20654;-80
2022/11/07 10:37:01;;;;;;;20.93;12.17;;;;;;;15.29;69.40;95136.47;5040979;28;20192;-80
2022/11/07 10:39:28;;;;;;;20.23;10.97;;;;;;;15.45;68.97;95146.38;5052823;28;20190;-80
2022/11/07 10:42:08;;;;;;;18.97;11.20;;;;;;;15.83;68.62;95198.13;5055133;28;20216;-81
2022/11/07 10:44:34;;;;;;;21.90;11.50;;;;;;;15.86;68.52;95197.66;5053983;28;20179;-81
2022/11/07 10:47:02;;;;;;;18.40;10.93;;;;;;;15.88;69.05;95187.63;5043081;28;20168;-80
2022/11/07 10:49:30;;;;;;;17.53;11.13;;;;;;;16.12;68.42;95193.66;5043867;28;20266;-80
2022/11/07 10:52:07;;;;;;;23.30;11.63;;;;;;;15.96;68.28;95171.31;5043069;28;20179;-80
2022/11/07 10:54:33;;;;;;;20.67;11.90;;;;;;;16.03;68.44;95190.56;5042695;28;20249;-80
2022/11/07 10:57:08;;;;;;;20.03;10.73;;;;;;;16.00;68.68;95195.56;5066684;28;20197;-80
2022/11/07 10:59:36;;;;;;;20.60;10.87;;;;;;;16.03;68.82;95189.75;5044828;28;20167;-80
2022/11/07 11:02:14;;;;;;;24.50;11.53;;;;;;;15.87;68.42;95153.31;5033168;28;20168;-80
2022/11/07 11:04:47;;;;;;;22.43;11.37;;;;;;;16.18;68.32;95188.19;5032904;28;20647;-80
2022/11/07 11:07:13;;;;;;;21.70;10.83;;;;;;;15.84;68.91;95136.81;5034199;28;20172;-80
2022/11/07 11:09:55;;;;;;;20.47;11.63;;;;;;;16.21;68.53;95182.41;5041572;28;20552;-79
2022/11/07 11:12:27;;;;;;;18.40;11.23;;;;;;;16.23;68.32;95171.56;5034255;28;20179;-79
2022/11/07 11:15:11;;;;;;;16.35;10.70;;;;;;;16.01;68.48;95138.72;5034155;28;20266;-80
2022/11/07 11:17:37;;;;;;;22.02;10.63;;;;;;;16.19;69.14;95170.41;5042918;28;20552;-80
2022/11/07 11:20:03;;;;;;;23.73;10.43;;;;;;;15.90;68.53;95113.84;5038385;28;20188;-80
2022/11/07 11:22:29;;;;;;;20.03;11.07;;;;;;;16.30;68.09;95169.56;5046788;28;20206;-80
2022/11/07 11:25:23;;;;;;;26.48;10.30;;;;;;;16.37;67.79;95158.78;5046766;28;20578;-80
2022/11/07 11:27:55;;;;;;;21.67;11.27;;;;;;;16.49;67.74;95164.84;5042417;28;20261;-80
2022/11/07 11:30:21;;;;;;;24.83;11.47;;;;;;;16.50;67.44;95153.16;5042901;28;20184;-80
2022/11/07 11:33:02;;;;;;;25.60;10.87;;;;;;;16.18;67.68;95121.78;5043844;28;20184;-80
2022/11/07 11:35:39;;;;;;;17.53;9.90;;;;;;;16.50;68.51;95153.16;5046000;28;20217;-79